createdAt,value
2023-02-25T00:01:24.150Z,94017.34
2023-02-25T00:03:25.967Z,94018.34
2023-02-25T00:05:29.499Z,94018.97
2023-02-25T00:07:33.808Z,94020.44
2023-02-25T00:09:35.432Z,94023.69
2023-02-25T00:11:37.116Z,94029.56
2023-02-25T00:13:40.479Z,94029.25
2023-02-25T00:15:42.022Z,94027.97
2023-02-25T00:17:43.979Z,94013.09
2023-02-25T00:19:45.835Z,94024.03
2023-02-25T00:21:47.465Z,94022.06
2023-02-25T00:23:50.310Z,94023.72
2023-02-25T00:26:01.563Z,94024.38
2023-02-25T00:28:06.513Z,94021.09
2023-02-25T00:30:10.903Z,94024.22
2023-02-25T00:32:12.718Z,94002.50
2023-02-25T00:34:14.537Z,94004.16
2023-02-25T00:36:23.215Z,94007.72
2023-02-25T00:38:25.099Z,94000.88
2023-02-25T00:40:26.742Z,94009.69
2023-02-25T00:42:28.373Z,94001.38
2023-02-25T00:44:29.999Z,93998.91
2023-02-25T00:46:32.011Z,93988.34
2023-02-25T00:48:33.789Z,93987.50
2023-02-25T00:50:35.784Z,93989.13
2023-02-25T00:52:38.044Z,93975.28
2023-02-25T00:54:39.627Z,93982.44
2023-02-25T00:56:41.299Z,93976.41
2023-02-25T00:58:44.471Z,93972.81
2023-02-25T01:00:51.480Z,93978.84
2023-02-25T01:02:56.362Z,93968.91
2023-02-25T01:04:57.990Z,93972.50
2023-02-25T01:06:59.672Z,93962.06
2023-02-25T01:09:01.455Z,93949.03
2023-02-25T01:11:36.285Z,93960.09
2023-02-25T01:13:37.907Z,93956.19
2023-02-25T01:15:39.642Z,93948.19
2023-02-25T01:17:41.260Z,93944.25
2023-02-25T01:19:42.871Z,93953.72
2023-02-25T01:21:46.577Z,93959.13
2023-02-25T01:24:01.152Z,93952.28
2023-02-25T01:26:09.867Z,93939.88
2023-02-25T01:28:14.494Z,93937.41
2023-02-25T01:30:17.091Z,93951.13
2023-02-25T01:32:18.732Z,93942.16
2023-02-25T01:34:21.054Z,93934.16
2023-02-25T01:36:27.031Z,93942.66
2023-02-25T01:38:28.611Z,93946.22
2023-02-25T01:40:33.864Z,93950.13
2023-02-25T01:42:35.474Z,93949.31
2023-02-25T01:45:12.135Z,93954.72
2023-02-25T01:47:20.520Z,93940.22
2023-02-25T01:49:43.652Z,93932.38
2023-02-25T01:51:48.300Z,93940.84
2023-02-25T01:53:49.880Z,93951.75
2023-02-25T01:55:51.881Z,93936.41
2023-02-25T01:57:53.702Z,93947.34
2023-02-25T01:59:55.486Z,93943.94
2023-02-25T02:01:57.337Z,93955.50
2023-02-25T02:03:58.929Z,93950.47
2023-02-25T02:06:30.978Z,93946.56
2023-02-25T02:08:33.832Z,93935.16
2023-02-25T02:10:35.489Z,93920.97
2023-02-25T02:12:43.051Z,93940.22
2023-02-25T02:14:44.698Z,93929.44
2023-02-25T02:16:53.443Z,93929.44
2023-02-25T02:19:01.725Z,93919.19
2023-02-25T02:21:18.522Z,93929.13
2023-02-25T02:23:44.719Z,93921.94
2023-02-25T02:26:10.420Z,93911.84
2023-02-25T02:28:20.869Z,93908.72
2023-02-25T02:30:36.734Z,93914.28
2023-02-25T02:32:48.624Z,93915.59
2023-02-25T02:35:16.595Z,93920.94
2023-02-25T02:37:40.877Z,93919.47
2023-02-25T02:40:16.462Z,93910.03
2023-02-25T02:42:27.700Z,93900.53
2023-02-25T02:44:44.496Z,93906.25
2023-02-25T02:46:49.665Z,93897.31
2023-02-25T02:48:55.291Z,93893.41
2023-02-25T02:51:01.743Z,93892.13
2023-02-25T02:53:32.485Z,93892.44
2023-02-25T02:55:41.229Z,93875.16
2023-02-25T02:57:43.108Z,93874.81
2023-02-25T02:59:52.167Z,93878.41
2023-02-25T03:02:08.799Z,93878.25
2023-02-25T03:04:13.524Z,93886.91
2023-02-25T03:06:19.588Z,93892.28
2023-02-25T03:08:26.454Z,93887.38
2023-02-25T03:10:28.249Z,93890.97
2023-02-25T03:12:30.197Z,93893.91
2023-02-25T03:14:31.789Z,93894.03
2023-02-25T03:16:58.287Z,93895.44
2023-02-25T03:19:05.945Z,93880.72
2023-02-25T03:21:18.351Z,93887.09
2023-02-25T03:23:31.550Z,93880.78
2023-02-25T03:25:36.374Z,93864.50
2023-02-25T03:27:40.261Z,93887.00
2023-02-25T03:29:42.384Z,93901.66
2023-02-25T03:31:50.132Z,93881.75
2023-02-25T03:33:53.716Z,93871.13
2023-02-25T03:35:56.807Z,93880.78
2023-02-25T03:38:08.367Z,93890.91
2023-02-25T03:40:13.001Z,93889.78
2023-02-25T03:42:20.919Z,93890.94
2023-02-25T03:44:25.953Z,93884.75
2023-02-25T03:46:28.161Z,93872.53
2023-02-25T03:48:30.505Z,93875.50
2023-02-25T03:50:36.168Z,93862.59
2023-02-25T03:52:39.565Z,93877.56
2023-02-25T03:54:41.256Z,93870.75
2023-02-25T03:56:44.933Z,93862.06
2023-02-25T03:58:46.541Z,93868.91
2023-02-25T04:00:49.718Z,93875.09
2023-02-25T04:02:51.712Z,93858.03
2023-02-25T04:04:56.379Z,93867.78
2023-02-25T04:06:58.106Z,93873.31
2023-02-25T04:08:59.753Z,93874.97
2023-02-25T04:11:01.314Z,93874.13
2023-02-25T04:13:02.898Z,93897.09
2023-02-25T04:15:08.607Z,93889.94
2023-02-25T04:17:11.767Z,93885.22
2023-02-25T04:19:13.390Z,93880.50
2023-02-25T04:21:36.213Z,93873.47
2023-02-25T04:23:37.827Z,93876.25
2023-02-25T04:25:39.435Z,93869.75
2023-02-25T04:27:50.202Z,93866.66
2023-02-25T04:29:51.921Z,93874.47
2023-02-25T04:31:53.854Z,93863.88
2023-02-25T04:33:58.038Z,93857.53
2023-02-25T04:36:02.917Z,93859.50
2023-02-25T04:38:04.545Z,93858.84
2023-02-25T04:40:13.682Z,93850.03
2023-02-25T04:42:15.275Z,93834.41
2023-02-25T04:44:16.862Z,93826.41
2023-02-25T04:46:18.659Z,93835.69
2023-02-25T04:48:24.245Z,93841.22
2023-02-25T04:50:26.466Z,93834.88
2023-02-25T04:52:28.414Z,93838.31
2023-02-25T04:54:29.976Z,93829.34
2023-02-25T04:56:31.618Z,93810.44
2023-02-25T04:58:33.901Z,93822.50
2023-02-25T05:00:35.498Z,93828.19
2023-02-25T05:02:37.119Z,93811.94
2023-02-25T05:04:39.510Z,93810.94
2023-02-25T05:06:41.106Z,93802.81
2023-02-25T05:08:42.774Z,93813.88
2023-02-25T05:10:44.349Z,93813.88
2023-02-25T05:12:45.960Z,93806.72
2023-02-25T05:14:47.775Z,93799.41
2023-02-25T05:16:49.435Z,93814.03
2023-02-25T05:18:51.018Z,93799.38
2023-02-25T05:20:54.070Z,93785.56
2023-02-25T05:22:58.644Z,93812.03
2023-02-25T05:25:00.440Z,93822.84
2023-02-25T05:27:09.027Z,93813.78
2023-02-25T05:29:11.271Z,93804.38
2023-02-25T05:31:13.137Z,93822.38
2023-02-25T05:33:14.865Z,93838.50
2023-02-25T05:35:16.504Z,93837.59
2023-02-25T05:37:18.143Z,93841.19
2023-02-25T05:39:23.139Z,93851.63
2023-02-25T05:41:26.165Z,93851.03
2023-02-25T05:43:27.970Z,93845.47
2023-02-25T05:45:29.714Z,93855.22
2023-02-25T05:47:34.385Z,93854.13
2023-02-25T05:49:35.953Z,93860.84
2023-02-25T05:51:37.558Z,93839.03
2023-02-25T05:53:39.664Z,93844.78
2023-02-25T05:55:42.429Z,93854.91
2023-02-25T05:57:44.036Z,93867.44
2023-02-25T05:59:45.697Z,93859.97
2023-02-25T06:01:47.423Z,93852.16
2023-02-25T06:03:50.217Z,93843.69
2023-02-25T06:05:53.389Z,93857.22
2023-02-25T06:07:55.043Z,93866.66
2023-02-25T06:10:00.760Z,93863.91
2023-02-25T06:12:02.337Z,93847.63
2023-02-25T06:14:04.068Z,93856.09
2023-02-25T06:16:06.458Z,93866.38
2023-02-25T06:18:08.693Z,93855.75
2023-02-25T06:20:11.299Z,93863.25
2023-02-25T06:22:13.490Z,93851.38
2023-02-25T06:24:16.325Z,93854.78
2023-02-25T06:26:18.489Z,93855.44
2023-02-25T06:28:20.064Z,93859.34
2023-02-25T06:30:21.671Z,93853.00
2023-02-25T06:32:23.481Z,93854.78
2023-02-25T06:34:25.261Z,93871.25
2023-02-25T06:36:27.062Z,93877.28
2023-02-25T06:38:28.872Z,93878.59
2023-02-25T06:40:38.101Z,93868.31
2023-02-25T06:42:39.739Z,93868.50
2023-02-25T06:44:41.487Z,93874.97
2023-02-25T06:46:43.075Z,93870.75
2023-02-25T06:48:44.628Z,93869.41
2023-02-25T06:50:46.239Z,93864.56
2023-02-25T06:52:47.860Z,93863.25
2023-02-25T06:54:50.543Z,93853.31
2023-02-25T06:56:53.526Z,93843.31
2023-02-25T06:58:56.748Z,93840.41
2023-02-25T07:00:58.399Z,93831.06
2023-02-25T07:03:03.054Z,93834.66
2023-02-25T07:05:05.675Z,93842.66
2023-02-25T07:07:07.959Z,93819.81
2023-02-25T07:09:09.787Z,93809.31
2023-02-25T07:11:26.977Z,93809.91
2023-02-25T07:13:28.636Z,93806.28
2023-02-25T07:15:30.246Z,93809.50
2023-02-25T07:17:31.795Z,93798.00
2023-02-25T07:19:33.412Z,93796.13
2023-02-25T07:21:35.108Z,93806.22
2023-02-25T07:23:36.815Z,93810.09
2023-02-25T07:25:38.830Z,93807.91
2023-02-25T07:27:44.227Z,93785.66
2023-02-25T07:29:46.379Z,93785.66
2023-02-25T07:31:48.167Z,93776.97
2023-02-25T07:33:50.442Z,93763.38
2023-02-25T07:35:54.704Z,93772.44
2023-02-25T07:37:56.327Z,93779.59
2023-02-25T07:40:01.079Z,93764.13
2023-02-25T07:42:02.630Z,93756.75
2023-02-25T07:44:06.229Z,93765.34
2023-02-25T07:46:08.711Z,93759.75
2023-02-25T07:48:13.465Z,93746.16
2023-02-25T07:50:15.292Z,93737.59
2023-02-25T07:52:16.937Z,93732.66
2023-02-25T07:54:21.299Z,93742.22
2023-02-25T07:56:24.541Z,93741.78
2023-02-25T07:58:28.569Z,93721.41
2023-02-25T08:00:30.340Z,93715.19
2023-02-25T08:02:32.044Z,93714.81
2023-02-25T08:04:33.916Z,93712.56
2023-02-25T08:06:37.766Z,93722.59
2023-02-25T08:08:39.305Z,93708.78
2023-02-25T08:10:40.922Z,93701.09
2023-02-25T08:12:42.457Z,93718.06
2023-02-25T08:14:46.893Z,93722.66
2023-02-25T08:16:49.044Z,93708.25
2023-02-25T08:18:53.007Z,93707.63
2023-02-25T08:20:56.070Z,93716.56
2023-02-25T08:22:59.141Z,93722.16
2023-02-25T08:25:00.830Z,93722.59
2023-02-25T08:27:02.497Z,93706.91
2023-02-25T08:29:04.806Z,93696.69
2023-02-25T08:31:08.450Z,93706.41
2023-02-25T08:33:10.200Z,93711.03
2023-02-25T08:35:14.829Z,93695.84
2023-02-25T08:37:16.494Z,93705.31
2023-02-25T08:39:21.862Z,93691.44
2023-02-25T08:41:24.578Z,93704.72
2023-02-25T08:43:26.299Z,93701.28
2023-02-25T08:45:28.879Z,93680.88
2023-02-25T08:47:30.524Z,93688.28
2023-02-25T08:49:32.129Z,93673.75
2023-02-25T08:51:36.616Z,93677.63
2023-02-25T08:53:39.860Z,93674.38
2023-02-25T08:55:41.932Z,93683.72
2023-02-25T08:57:43.837Z,93680.56
2023-02-25T08:59:45.438Z,93690.75
2023-02-25T09:01:52.226Z,93689.00
2023-02-25T09:03:54.074Z,93682.16
2023-02-25T09:05:56.314Z,93681.34
2023-02-25T09:08:01.031Z,93667.28
2023-02-25T09:10:06.628Z,93660.66
2023-02-25T09:12:08.779Z,93669.53
2023-02-25T09:14:10.650Z,93658.16
2023-02-25T09:16:17.268Z,93649.56
2023-02-25T09:18:19.108Z,93666.56
2023-02-25T09:20:20.738Z,93650.13
2023-02-25T09:22:22.340Z,93672.50
2023-02-25T09:24:24.225Z,93651.56
2023-02-25T09:26:25.845Z,93665.09
2023-02-25T09:28:27.485Z,93657.72
2023-02-25T09:30:29.170Z,93652.72
2023-02-25T09:32:30.985Z,93653.28
2023-02-25T09:34:35.489Z,93633.34
2023-02-25T09:36:37.908Z,93633.16
2023-02-25T09:38:41.334Z,93639.94
2023-02-25T09:40:46.868Z,93615.69
2023-02-25T09:43:28.262Z,93633.34
2023-02-25T09:45:31.780Z,93635.41
2023-02-25T09:47:48.221Z,93618.66
2023-02-25T09:50:08.536Z,93618.63
2023-02-25T09:52:19.019Z,93619.50
2023-02-25T09:54:30.281Z,93624.06
2023-02-25T09:56:31.942Z,93596.31
2023-02-25T09:58:35.740Z,93611.28
2023-02-25T10:00:45.442Z,93617.78
2023-02-25T10:03:07.571Z,93592.09
2023-02-25T10:05:27.944Z,93592.88
2023-02-25T10:07:35.837Z,93602.53
2023-02-25T10:09:48.315Z,93614.59
2023-02-25T10:12:01.211Z,93597.78
2023-02-25T10:14:10.163Z,93584.69
2023-02-25T10:16:45.092Z,93575.53
2023-02-25T10:19:04.800Z,93547.28
2023-02-25T10:21:12.459Z,93546.91
2023-02-25T10:23:14.037Z,93548.41
2023-02-25T10:25:20.446Z,93550.53
2023-02-25T10:27:27.848Z,93529.25
2023-02-25T10:29:42.576Z,93526.56
2023-02-25T10:31:45.897Z,93509.84
2023-02-25T10:33:50.430Z,93508.03
2023-02-25T10:36:15.022Z,93493.91
2023-02-25T10:38:16.562Z,93506.28
2023-02-25T10:40:22.131Z,93505.91
2023-02-25T10:42:24.297Z,93525.69
2023-02-25T10:44:25.922Z,93520.19
2023-02-25T10:46:34.986Z,93503.84
2023-02-25T10:48:37.252Z,93512.38
2023-02-25T10:50:45.985Z,93500.28
2023-02-25T10:52:54.548Z,93512.81
2023-02-25T10:54:56.188Z,93501.31
2023-02-25T10:57:00.859Z,93509.19
2023-02-25T10:59:08.456Z,93501.94
2023-02-25T11:01:10.088Z,93471.59
2023-02-25T11:03:21.968Z,93464.66
2023-02-25T11:05:43.677Z,93463.84
2023-02-25T11:07:47.731Z,93466.25
2023-02-25T11:09:49.572Z,93463.00
2023-02-25T11:12:01.240Z,93459.47
2023-02-25T11:14:09.043Z,93458.06
2023-02-25T11:16:13.309Z,93443.84
2023-02-25T11:18:31.206Z,93447.09
2023-02-25T11:20:33.546Z,93439.78
2023-02-25T11:22:39.987Z,93430.63
2023-02-25T11:24:42.950Z,93420.69
2023-02-25T11:26:47.792Z,93434.84
2023-02-25T11:28:50.114Z,93435.59
2023-02-25T11:30:52.132Z,93427.06
2023-02-25T11:32:56.053Z,93414.91
2023-02-25T11:35:00.056Z,93399.88
2023-02-25T11:37:49.502Z,93392.72
2023-02-25T11:39:55.894Z,93400.03
2023-02-25T11:42:02.532Z,93421.69
2023-02-25T11:44:42.951Z,93417.63
2023-02-25T11:46:45.076Z,93406.81
2023-02-25T11:48:52.648Z,93413.94
2023-02-25T11:51:01.293Z,93434.25
2023-02-25T11:53:21.931Z,93402.59
2023-02-25T11:55:51.503Z,93399.13
2023-02-25T11:58:05.497Z,93398.75
2023-02-25T12:00:21.404Z,93413.06
2023-02-25T12:02:41.316Z,93399.28
2023-02-25T12:05:12.133Z,93406.16
2023-02-25T12:07:22.424Z,93405.13
2023-02-25T12:09:42.486Z,93423.97
2023-02-25T12:12:19.770Z,93415.69
2023-02-25T12:14:36.311Z,93438.56
2023-02-25T12:16:59.451Z,93429.34
2023-02-25T12:19:11.760Z,93438.06
2023-02-25T12:21:50.508Z,93415.50
2023-02-25T12:24:29.459Z,93451.19
2023-02-25T12:27:06.471Z,93424.22
2023-02-25T12:29:17.023Z,93407.19
2023-02-25T12:31:36.385Z,93408.78
2023-02-25T12:33:47.056Z,93396.84
2023-02-25T12:36:04.026Z,93368.44
2023-02-25T12:38:39.869Z,93387.38
2023-02-25T12:40:47.888Z,93363.00
2023-02-25T12:43:04.704Z,93377.16
2023-02-25T12:45:25.901Z,93353.63
2023-02-25T12:47:57.707Z,93354.66
2023-02-25T12:50:17.337Z,93330.06
2023-02-25T12:52:38.948Z,93346.81
2023-02-25T12:55:06.569Z,93323.91
2023-02-25T12:57:38.756Z,93329.78
2023-02-25T12:59:49.275Z,93334.00
2023-02-25T13:02:09.587Z,93306.56
2023-02-25T13:04:23.151Z,93312.56
2023-02-25T13:06:40.084Z,93340.44
2023-02-25T13:09:05.512Z,93321.34
2023-02-25T13:11:16.432Z,93332.50
2023-02-25T13:13:36.626Z,93334.75
2023-02-25T13:15:53.986Z,93323.91
2023-02-25T13:18:07.175Z,93305.72
2023-02-25T13:20:20.786Z,93318.91
2023-02-25T13:22:56.451Z,93301.56
2023-02-25T13:25:10.758Z,93322.53
2023-02-25T13:27:22.248Z,93291.25
2023-02-25T13:29:30.196Z,93277.00
2023-02-25T13:31:52.938Z,93318.78
2023-02-25T13:34:19.526Z,93300.88
2023-02-25T13:36:32.761Z,93282.88
2023-02-25T13:38:52.571Z,93298.63
2023-02-25T13:41:15.510Z,93302.44
2023-02-25T13:43:29.333Z,93308.06
2023-02-25T13:46:02.260Z,93312.91
2023-02-25T13:48:27.899Z,93307.19
2023-02-25T13:50:47.776Z,93289.84
2023-02-25T13:53:04.315Z,93310.97
2023-02-25T13:55:27.349Z,93311.78
2023-02-25T13:58:05.862Z,93295.38
2023-02-25T14:00:31.903Z,93304.38
2023-02-25T14:03:09.830Z,93294.22
2023-02-25T14:05:30.104Z,93304.06
2023-02-25T14:07:56.859Z,93290.75
2023-02-25T14:10:25.679Z,93306.25
2023-02-25T14:12:44.381Z,93305.44
2023-02-25T14:15:16.729Z,93298.13
2023-02-25T14:17:59.971Z,93285.50
2023-02-25T14:20:14.453Z,93294.50
2023-02-25T14:22:24.958Z,93288.66
2023-02-25T14:24:45.422Z,93281.31
2023-02-25T14:27:11.639Z,93276.25
2023-02-25T14:29:57.622Z,93264.69
2023-02-25T14:32:22.073Z,93264.09
2023-02-25T14:34:23.525Z,93264.91
2023-02-25T19:59:39.925Z,93373.00
2023-02-25T20:01:42.146Z,93346.66
2023-02-25T20:03:43.798Z,93362.25
2023-02-25T20:05:45.441Z,93355.97
2023-02-25T20:07:47.236Z,93348.09
2023-02-25T20:09:49.001Z,93352.38
2023-02-25T20:11:51.693Z,93366.00
2023-02-25T20:13:53.265Z,93362.75
2023-02-25T20:16:01.661Z,93363.97
2023-02-25T20:18:03.502Z,93350.66
2023-02-25T20:20:06.866Z,93351.66
2023-02-25T20:22:08.667Z,93350.03
2023-02-25T20:24:10.207Z,93317.88
2023-02-25T20:26:13.791Z,93336.84
2023-02-25T20:28:15.341Z,93346.81
2023-02-25T20:30:17.764Z,93336.84
2023-02-25T20:32:19.412Z,93346.59
2023-02-25T20:34:23.589Z,93352.06
2023-02-25T20:36:27.643Z,93354.13
2023-02-25T20:38:33.667Z,93360.84
2023-02-25T20:40:35.385Z,93370.19
2023-02-25T20:42:37.097Z,93368.53
2023-02-25T20:44:38.945Z,93375.63
2023-02-25T20:46:42.645Z,93378.28
2023-02-25T20:48:44.352Z,93387.03
2023-02-25T20:50:46.246Z,93368.41
2023-02-25T20:52:48.301Z,93389.22
2023-02-25T20:54:50.116Z,93382.34
2023-02-25T20:56:51.864Z,93387.63
2023-02-25T20:58:54.897Z,93387.63
2023-02-25T21:00:57.343Z,93388.03
2023-02-25T21:02:59.030Z,93373.41
2023-02-25T21:05:00.626Z,93345.47
2023-02-25T21:07:03.798Z,93366.34
2023-02-25T21:09:07.022Z,93362.47
2023-02-25T21:11:09.125Z,93381.91
2023-02-25T21:13:11.101Z,93351.28
2023-02-25T21:15:12.705Z,93346.97
2023-02-25T21:17:14.350Z,93348.81
2023-02-25T21:19:16.093Z,93358.13
2023-02-25T21:21:20.419Z,93337.03
2023-02-25T21:23:24.538Z,93324.69
2023-02-25T21:25:26.120Z,93336.66
2023-02-25T21:27:29.136Z,93338.50
2023-02-25T21:29:30.779Z,93350.81
2023-02-25T21:31:36.099Z,93348.56
2023-02-25T21:33:38.699Z,93335.81
2023-02-25T21:35:40.805Z,93354.47
2023-02-25T21:37:42.588Z,93343.53
2023-02-25T21:39:44.217Z,93359.75
2023-02-25T21:41:46.171Z,93340.44
2023-02-25T21:43:47.869Z,93344.66
2023-02-25T21:45:56.284Z,93360.72
2023-02-25T21:47:57.875Z,93363.72
2023-02-25T21:49:59.418Z,93350.31
2023-02-25T21:52:01.620Z,93343.06
2023-02-25T21:54:03.470Z,93347.25
2023-02-25T21:56:13.085Z,93331.44
2023-02-25T21:58:15.525Z,93341.97
2023-02-25T22:00:17.599Z,93336.34
2023-02-25T22:02:19.861Z,93339.13
2023-02-25T22:04:21.495Z,93334.66
2023-02-25T22:06:24.651Z,93357.56
2023-02-25T22:08:26.501Z,93363.00
2023-02-25T22:10:28.228Z,93346.81
2023-02-25T22:12:29.973Z,93358.16
2023-02-25T22:14:31.582Z,93375.31
2023-02-25T22:16:33.833Z,93379.13
2023-02-25T22:18:35.915Z,93374.66
2023-02-25T22:20:37.462Z,93384.78
2023-02-25T22:22:39.264Z,93376.66
2023-02-25T22:24:40.867Z,93380.75
2023-02-25T22:26:42.425Z,93365.94
2023-02-25T22:28:44.514Z,93402.66
2023-02-25T22:30:46.932Z,93400.38
2023-02-25T22:32:48.674Z,93390.44
2023-02-25T22:34:50.381Z,93400.81
2023-02-25T22:36:52.242Z,93406.28
2023-02-25T22:38:53.891Z,93401.41
2023-02-25T22:40:55.625Z,93414.00
2023-02-25T22:42:57.227Z,93399.22
2023-02-25T22:44:58.809Z,93406.75
2023-02-25T22:47:00.454Z,93402.72
2023-02-25T22:49:02.946Z,93393.41
2023-02-25T22:51:05.588Z,93410.16
2023-02-25T22:53:07.187Z,93411.81
2023-02-25T22:55:11.942Z,93408.34
2023-02-25T22:57:13.530Z,93409.59
2023-02-25T22:59:15.261Z,93417.72
2023-02-25T23:01:19.423Z,93414.06
2023-02-25T23:03:21.249Z,93420.97
2023-02-25T23:05:22.872Z,93413.25
2023-02-25T23:07:24.456Z,93417.19
2023-02-25T23:09:26.189Z,93400.06
2023-02-25T23:11:30.058Z,93419.31
2023-02-25T23:13:31.714Z,93391.78
2023-02-25T23:15:36.605Z,93410.88
2023-02-25T23:17:38.962Z,93433.56
2023-02-25T23:19:40.588Z,93434.75
2023-02-25T23:21:42.391Z,93433.75
2023-02-25T23:23:44.124Z,93457.28
2023-02-25T23:25:51.515Z,93446.94
2023-02-25T23:27:53.090Z,93455.84
2023-02-25T23:29:54.729Z,93431.13
2023-02-25T23:31:56.496Z,93442.91
2023-02-25T23:34:08.830Z,93435.00
2023-02-25T23:36:11.346Z,93458.72
2023-02-25T23:38:13.240Z,93466.03
2023-02-25T23:40:15.279Z,93453.31
2023-02-25T23:42:16.903Z,93457.34
2023-02-25T23:44:18.558Z,93431.28
2023-02-25T23:46:20.394Z,93441.84
2023-02-25T23:48:22.013Z,93453.19
2023-02-25T23:50:23.657Z,93455.59
2023-02-25T23:52:25.345Z,93455.75
2023-02-25T23:54:26.974Z,93468.28
2023-02-25T23:56:30.833Z,93427.56
2023-02-25T23:58:32.524Z,93438.31
